sensor_id;sensor_type;location;lat;lon;timestamp;pressure;altitude;pressure_sealevel;temperature;humidity
69239;BME280;56349;51.816;-0.026;2023-03-15T00:01:16;100744.79;;;27.09;25.51
69239;BME280;56349;51.816;-0.026;2023-03-15T00:03:39;100746.88;;;27.32;25.52
69239;BME280;56349;51.816;-0.026;2023-03-15T00:06:05;100749.46;;;27.27;25.53
69239;BME280;56349;51.816;-0.026;2023-03-15T00:08:30;100749.65;;;26.95;25.53
69239;BME280;56349;51.816;-0.026;2023-03-15T00:10:56;100750.72;;;27.36;25.54
69239;BME280;56349;51.816;-0.026;2023-03-15T00:13:22;100751.27;;;27.30;25.55
69239;BME280;56349;51.816;-0.026;2023-03-15T00:15:50;100754.18;;;27.05;25.55
69239;BME280;56349;51.816;-0.026;2023-03-15T00:18:15;100754.50;;;27.03;25.53
69239;BME280;56349;51.816;-0.026;2023-03-15T00:20:39;100758.37;;;26.70;25.54
69239;BME280;56349;51.816;-0.026;2023-03-15T00:23:04;100761.12;;;26.65;25.56
69239;BME280;56349;51.816;-0.026;2023-03-15T00:25:29;100764.93;;;26.91;25.53
69239;BME280;56349;51.816;-0.026;2023-03-15T00:27:56;100774.75;;;27.08;25.51
69239;BME280;56349;51.816;-0.026;2023-03-15T00:30:22;100777.21;;;26.80;25.55
69239;BME280;56349;51.816;-0.026;2023-03-15T00:32:48;100780.18;;;26.99;25.54
69239;BME280;56349;51.816;-0.026;2023-03-15T00:35:14;100782.85;;;26.70;25.55
69239;BME280;56349;51.816;-0.026;2023-03-15T00:37:39;100784.42;;;26.67;25.55
69239;BME280;56349;51.816;-0.026;2023-03-15T00:40:06;100787.25;;;26.63;25.53
69239;BME280;56349;51.816;-0.026;2023-03-15T00:42:31;100785.01;;;26.60;25.53
69239;BME280;56349;51.816;-0.026;2023-03-15T00:44:56;100786.15;;;26.54;25.55
69239;BME280;56349;51.816;-0.026;2023-03-15T00:47:22;100787.40;;;26.47;25.58
69239;BME280;56349;51.816;-0.026;2023-03-15T00:49:48;100790.37;;;26.48;25.54
69239;BME280;56349;51.816;-0.026;2023-03-15T00:52:14;100793.92;;;26.45;25.53
69239;BME280;56349;51.816;-0.026;2023-03-15T00:54:39;100796.25;;;26.63;25.55
69239;BME280;56349;51.816;-0.026;2023-03-15T00:57:05;100801.76;;;26.34;25.56
69239;BME280;56349;51.816;-0.026;2023-03-15T00:59:32;100809.52;;;26.53;25.56
69239;BME280;56349;51.816;-0.026;2023-03-15T01:01:57;100813.05;;;26.30;25.53
69239;BME280;56349;51.816;-0.026;2023-03-15T01:04:23;100814.00;;;26.50;25.53
69239;BME280;56349;51.816;-0.026;2023-03-15T01:06:49;100812.85;;;26.43;25.55
69239;BME280;56349;51.816;-0.026;2023-03-15T01:09:15;100815.00;;;26.37;25.58
69239;BME280;56349;51.816;-0.026;2023-03-15T01:11:41;100817.21;;;26.36;25.56
69239;BME280;56349;51.816;-0.026;2023-03-15T01:14:08;100820.04;;;26.09;25.58
69239;BME280;56349;51.816;-0.026;2023-03-15T01:16:33;100825.84;;;26.27;25.59
69239;BME280;56349;51.816;-0.026;2023-03-15T01:18:59;100828.12;;;26.23;25.60
69239;BME280;56349;51.816;-0.026;2023-03-15T01:21:24;100834.45;;;26.19;25.59
69239;BME280;56349;51.816;-0.026;2023-03-15T01:23:51;100842.56;;;26.15;25.61
69239;BME280;56349;51.816;-0.026;2023-03-15T01:26:17;100844.23;;;26.12;25.59
69239;BME280;56349;51.816;-0.026;2023-03-15T01:28:42;100848.75;;;26.10;25.58
69239;BME280;56349;51.816;-0.026;2023-03-15T01:31:10;100849.20;;;26.06;25.58
69239;BME280;56349;51.816;-0.026;2023-03-15T01:33:33;100848.92;;;25.99;25.61
69239;BME280;56349;51.816;-0.026;2023-03-15T01:35:59;100852.21;;;25.97;25.55
69239;BME280;56349;51.816;-0.026;2023-03-15T01:38:23;100855.30;;;25.91;25.50
69239;BME280;56349;51.816;-0.026;2023-03-15T01:40:49;100855.44;;;25.85;25.46
69239;BME280;56349;51.816;-0.026;2023-03-15T01:43:16;100856.83;;;26.21;25.48
69239;BME280;56349;51.816;-0.026;2023-03-15T01:48:06;100868.70;;;25.91;25.52
69239;BME280;56349;51.816;-0.026;2023-03-15T01:50:31;100869.38;;;25.74;25.59
69239;BME280;56349;51.816;-0.026;2023-03-15T01:52:56;100873.87;;;25.50;25.68
69239;BME280;56349;51.816;-0.026;2023-03-15T01:55:22;100876.86;;;25.26;25.82
69239;BME280;56349;51.816;-0.026;2023-03-15T01:57:50;100882.67;;;25.50;25.96
69239;BME280;56349;51.816;-0.026;2023-03-15T02:00:15;100890.05;;;25.24;26.15
69239;BME280;56349;51.816;-0.026;2023-03-15T02:02:42;100894.16;;;24.97;26.33
69239;BME280;56349;51.816;-0.026;2023-03-15T02:05:07;100899.97;;;24.69;26.55
69239;BME280;56349;51.816;-0.026;2023-03-15T02:07:31;100903.03;;;24.65;26.75
69239;BME280;56349;51.816;-0.026;2023-03-15T02:09:59;100902.73;;;24.16;26.99
69239;BME280;56349;51.816;-0.026;2023-03-15T02:12:22;100902.11;;;24.31;27.20
69239;BME280;56349;51.816;-0.026;2023-03-15T02:14:48;100901.60;;;24.05;27.43
69239;BME280;56349;51.816;-0.026;2023-03-15T02:17:14;100898.53;;;23.80;27.64
69239;BME280;56349;51.816;-0.026;2023-03-15T02:19:47;100903.59;;;23.83;27.88
69239;BME280;56349;51.816;-0.026;2023-03-15T02:22:14;100906.34;;;23.59;28.10
69239;BME280;56349;51.816;-0.026;2023-03-15T02:24:37;100906.60;;;23.38;28.29
69239;BME280;56349;51.816;-0.026;2023-03-15T02:26:57;100903.21;;;23.16;28.46
69239;BME280;56349;51.816;-0.026;2023-03-15T02:29:24;100902.51;;;22.97;28.65
69239;BME280;56349;51.816;-0.026;2023-03-15T02:31:48;100901.50;;;22.96;28.87
69239;BME280;56349;51.816;-0.026;2023-03-15T02:34:13;100897.69;;;22.78;29.08
69239;BME280;56349;51.816;-0.026;2023-03-15T02:36:38;100898.86;;;22.58;29.28
69239;BME280;56349;51.816;-0.026;2023-03-15T02:39:13;100899.42;;;22.92;29.44
69239;BME280;56349;51.816;-0.026;2023-03-15T02:41:32;100896.70;;;22.50;29.64
69239;BME280;56349;51.816;-0.026;2023-03-15T02:43:59;100898.46;;;22.56;29.83
69239;BME280;56349;51.816;-0.026;2023-03-15T02:46:21;100901.09;;;22.40;30.03
69239;BME280;56349;51.816;-0.026;2023-03-15T02:48:47;100901.34;;;22.01;30.19
69239;BME280;56349;51.816;-0.026;2023-03-15T02:51:19;100908.93;;;22.33;30.32
69239;BME280;56349;51.816;-0.026;2023-03-15T02:53:37;100909.73;;;21.96;30.48
69239;BME280;56349;51.816;-0.026;2023-03-15T02:56:02;100909.69;;;21.82;30.63
69239;BME280;56349;51.816;-0.026;2023-03-15T02:58:27;100910.14;;;21.89;30.80
69239;BME280;56349;51.816;-0.026;2023-03-15T03:00:53;100912.88;;;22.01;30.96
69239;BME280;56349;51.816;-0.026;2023-03-15T03:03:18;100912.62;;;21.62;31.09
69239;BME280;56349;51.816;-0.026;2023-03-15T03:05:44;100913.70;;;21.47;31.25
69239;BME280;56349;51.816;-0.026;2023-03-15T03:08:09;100914.81;;;21.12;31.40
69239;BME280;56349;51.816;-0.026;2023-03-15T03:10:34;100917.37;;;21.24;31.50
69239;BME280;56349;51.816;-0.026;2023-03-15T03:12:59;100919.94;;;21.16;31.58
69239;BME280;56349;51.816;-0.026;2023-03-15T03:15:24;100917.22;;;21.31;31.71
69239;BME280;56349;51.816;-0.026;2023-03-15T03:17:50;100917.05;;;20.94;31.82
69239;BME280;56349;51.816;-0.026;2023-03-15T03:20:15;100919.36;;;21.10;31.93
69239;BME280;56349;51.816;-0.026;2023-03-15T03:22:40;100918.27;;;20.99;32.05
69239;BME280;56349;51.816;-0.026;2023-03-15T03:25:07;100921.04;;;20.90;32.15
69239;BME280;56349;51.816;-0.026;2023-03-15T03:27:31;100922.14;;;20.82;32.24
69239;BME280;56349;51.816;-0.026;2023-03-15T03:29:58;100922.98;;;20.73;32.34
69239;BME280;56349;51.816;-0.026;2023-03-15T03:32:21;100923.91;;;20.65;32.42
69239;BME280;56349;51.816;-0.026;2023-03-15T03:34:47;100925.29;;;20.57;32.50
69239;BME280;56349;51.816;-0.026;2023-03-15T03:37:15;100930.85;;;20.50;32.57
69239;BME280;56349;51.816;-0.026;2023-03-15T03:39:39;100935.87;;;20.87;32.64
69239;BME280;56349;51.816;-0.026;2023-03-15T03:42:05;100942.36;;;20.34;32.73
69239;BME280;56349;51.816;-0.026;2023-03-15T03:44:31;100950.55;;;20.28;32.81
69239;BME280;56349;51.816;-0.026;2023-03-15T03:46:57;100954.03;;;19.99;32.84
69239;BME280;56349;51.816;-0.026;2023-03-15T03:49:23;100958.45;;;20.28;32.81
69239;BME280;56349;51.816;-0.026;2023-03-15T03:51:48;100970.39;;;20.28;32.82
69239;BME280;56349;51.816;-0.026;2023-03-15T03:54:14;100979.40;;;20.27;32.81
69239;BME280;56349;51.816;-0.026;2023-03-15T03:56:40;100981.67;;;20.26;32.84
69239;BME280;56349;51.816;-0.026;2023-03-15T03:59:06;100984.17;;;20.23;32.84
69239;BME280;56349;51.816;-0.026;2023-03-15T04:01:32;100980.11;;;19.92;32.88
69239;BME280;56349;51.816;-0.026;2023-03-15T04:03:58;100978.65;;;20.15;32.90
69239;BME280;56349;51.816;-0.026;2023-03-15T04:06:24;100979.67;;;20.11;32.91
69239;BME280;56349;51.816;-0.026;2023-03-15T04:08:51;100977.66;;;20.07;32.96
69239;BME280;56349;51.816;-0.026;2023-03-15T04:11:17;100976.99;;;20.02;32.99
69239;BME280;56349;51.816;-0.026;2023-03-15T04:13:43;100976.09;;;19.99;32.99
69239;BME280;56349;51.816;-0.026;2023-03-15T04:16:08;100980.15;;;20.36;33.06
69239;BME280;56349;51.816;-0.026;2023-03-15T04:18:34;100982.47;;;20.32;33.11
69239;BME280;56349;51.816;-0.026;2023-03-15T04:21:00;100987.68;;;19.85;33.16
69239;BME280;56349;51.816;-0.026;2023-03-15T04:23:26;100988.50;;;20.03;33.17
69239;BME280;56349;51.816;-0.026;2023-03-15T04:25:53;100986.71;;;20.01;33.18
69239;BME280;56349;51.816;-0.026;2023-03-15T04:28:18;100985.53;;;19.97;33.21
69239;BME280;56349;51.816;-0.026;2023-03-15T04:30:43;100984.22;;;19.73;33.29
69239;BME280;56349;51.816;-0.026;2023-03-15T04:33:08;100990.27;;;19.91;33.40
69239;BME280;56349;51.816;-0.026;2023-03-15T04:35:34;100994.18;;;20.16;33.45
69239;BME280;56349;51.816;-0.026;2023-03-15T04:38:00;100988.61;;;19.97;33.48
69239;BME280;56349;51.816;-0.026;2023-03-15T04:40:25;100985.87;;;20.03;33.49
69239;BME280;56349;51.816;-0.026;2023-03-15T04:42:51;100996.13;;;20.13;33.45
69239;BME280;56349;51.816;-0.026;2023-03-15T04:45:16;101001.14;;;20.06;33.36
69239;BME280;56349;51.816;-0.026;2023-03-15T04:47:42;100997.26;;;20.25;33.21
69239;BME280;56349;51.816;-0.026;2023-03-15T04:50:09;101001.52;;;20.44;33.02
69239;BME280;56349;51.816;-0.026;2023-03-15T04:52:35;101002.41;;;20.62;32.80
69239;BME280;56349;51.816;-0.026;2023-03-15T04:54:59;101001.84;;;20.49;32.61
69239;BME280;56349;51.816;-0.026;2023-03-15T04:57:26;101003.80;;;20.63;32.43
69239;BME280;56349;51.816;-0.026;2023-03-15T04:59:52;101007.80;;;20.96;32.27
69239;BME280;56349;51.816;-0.026;2023-03-15T05:02:17;101012.75;;;20.73;32.15
69239;BME280;56349;51.816;-0.026;2023-03-15T05:04:43;101013.60;;;20.75;32.05
69239;BME280;56349;51.816;-0.026;2023-03-15T05:07:08;101012.17;;;21.02;32.02
69239;BME280;56349;51.816;-0.026;2023-03-15T05:09:33;101012.00;;;20.77;32.02
69239;BME280;56349;51.816;-0.026;2023-03-15T05:11:59;101011.58;;;20.75;32.06
69239;BME280;56349;51.816;-0.026;2023-03-15T05:14:25;101009.38;;;20.97;32.17
69239;BME280;56349;51.816;-0.026;2023-03-15T05:16:52;101007.82;;;20.46;32.29
69239;BME280;56349;51.816;-0.026;2023-03-15T05:19:18;101009.88;;;20.96;32.37
69239;BME280;56349;51.816;-0.026;2023-03-15T05:21:43;101010.98;;;20.90;32.55
69239;BME280;56349;51.816;-0.026;2023-03-15T05:24:09;101013.99;;;20.81;32.81
69239;BME280;56349;51.816;-0.026;2023-03-15T05:26:34;101012.67;;;20.77;32.98
69239;BME280;56349;51.816;-0.026;2023-03-15T05:29:00;101009.49;;;20.75;33.17
69239;BME280;56349;51.816;-0.026;2023-03-15T05:31:26;101019.88;;;20.74;33.30
69239;BME280;56349;51.816;-0.026;2023-03-15T05:33:52;101026.47;;;20.73;33.41
69239;BME280;56349;51.816;-0.026;2023-03-15T05:36:18;101017.95;;;20.73;33.52
69239;BME280;56349;51.816;-0.026;2023-03-15T05:38:43;101014.84;;;20.72;33.62
69239;BME280;56349;51.816;-0.026;2023-03-15T05:41:09;101016.03;;;20.72;33.73
69239;BME280;56349;51.816;-0.026;2023-03-15T05:43:35;101028.81;;;20.71;33.83
69239;BME280;56349;51.816;-0.026;2023-03-15T05:46:01;101029.48;;;20.74;33.90
69239;BME280;56349;51.816;-0.026;2023-03-15T05:48:27;101026.41;;;20.77;33.95
69239;BME280;56349;51.816;-0.026;2023-03-15T05:50:53;101028.70;;;20.78;34.02
69239;BME280;56349;51.816;-0.026;2023-03-15T05:53:20;101030.86;;;20.80;34.08
69239;BME280;56349;51.816;-0.026;2023-03-15T05:55:46;101033.36;;;20.83;34.11
69239;BME280;56349;51.816;-0.026;2023-03-15T05:58:12;101032.68;;;20.85;34.17
69239;BME280;56349;51.816;-0.026;2023-03-15T06:00:36;101038.64;;;20.86;34.21
69239;BME280;56349;51.816;-0.026;2023-03-15T06:03:03;101036.85;;;20.88;34.24
69239;BME280;56349;51.816;-0.026;2023-03-15T06:05:28;101036.13;;;20.90;34.28
69239;BME280;56349;51.816;-0.026;2023-03-15T06:07:54;101042.31;;;20.93;34.30
69239;BME280;56349;51.816;-0.026;2023-03-15T06:10:20;101045.51;;;20.95;34.31
69239;BME280;56349;51.816;-0.026;2023-03-15T06:12:46;101049.36;;;20.97;34.32
69239;BME280;56349;51.816;-0.026;2023-03-15T06:15:12;101053.39;;;20.99;34.32
69239;BME280;56349;51.816;-0.026;2023-03-15T06:17:38;101054.59;;;21.01;34.31
69239;BME280;56349;51.816;-0.026;2023-03-15T06:20:05;101062.17;;;21.03;34.33
69239;BME280;56349;51.816;-0.026;2023-03-15T06:22:30;101066.74;;;21.05;34.31
69239;BME280;56349;51.816;-0.026;2023-03-15T06:24:56;101068.29;;;21.05;34.33
69239;BME280;56349;51.816;-0.026;2023-03-15T06:27:22;101067.64;;;21.07;34.31
69239;BME280;56349;51.816;-0.026;2023-03-15T06:29:48;101065.48;;;21.08;34.27
69239;BME280;56349;51.816;-0.026;2023-03-15T06:32:13;101070.39;;;21.08;34.22
69239;BME280;56349;51.816;-0.026;2023-03-15T06:34:39;101074.86;;;21.08;34.16
69239;BME280;56349;51.816;-0.026;2023-03-15T06:37:04;101075.84;;;20.82;34.08
69239;BME280;56349;51.816;-0.026;2023-03-15T06:39:30;101076.74;;;21.10;33.99
69239;BME280;56349;51.816;-0.026;2023-03-15T06:41:55;101084.82;;;21.09;33.92
69239;BME280;56349;51.816;-0.026;2023-03-15T06:44:21;101092.11;;;21.05;33.87
69239;BME280;56349;51.816;-0.026;2023-03-15T06:46:47;101091.74;;;21.02;33.81
69239;BME280;56349;51.816;-0.026;2023-03-15T06:49:13;101092.14;;;20.99;33.73
69239;BME280;56349;51.816;-0.026;2023-03-15T06:51:39;101094.11;;;20.96;33.68
69239;BME280;56349;51.816;-0.026;2023-03-15T06:54:06;101099.81;;;20.66;33.63
69239;BME280;56349;51.816;-0.026;2023-03-15T06:56:30;101096.70;;;21.14;33.56
69239;BME280;56349;51.816;-0.026;2023-03-15T06:58:56;101097.97;;;20.93;33.45
69239;BME280;56349;51.816;-0.026;2023-03-15T07:01:22;101100.59;;;20.87;33.41
69239;BME280;56349;51.816;-0.026;2023-03-15T07:03:48;101097.28;;;20.81;33.39
69239;BME280;56349;51.816;-0.026;2023-03-15T07:06:14;101097.03;;;20.76;33.36
69239;BME280;56349;51.816;-0.026;2023-03-15T07:08:41;101096.52;;;20.95;33.34
69239;BME280;56349;51.816;-0.026;2023-03-15T07:11:07;101101.42;;;20.70;33.24
69239;BME280;56349;51.816;-0.026;2023-03-15T07:13:33;101108.31;;;20.67;33.18
69239;BME280;56349;51.816;-0.026;2023-03-15T07:15:59;101112.31;;;20.86;33.19
69239;BME280;56349;51.816;-0.026;2023-03-15T07:18:25;101118.12;;;20.59;33.29
69239;BME280;56349;51.816;-0.026;2023-03-15T07:20:56;101118.83;;;20.54;33.46
69239;BME280;56349;51.816;-0.026;2023-03-15T07:23:17;101124.32;;;20.76;33.53
69239;BME280;56349;51.816;-0.026;2023-03-15T07:25:43;101127.55;;;20.58;33.64
69239;BME280;56349;51.816;-0.026;2023-03-15T07:28:09;101130.56;;;20.69;33.63
69239;BME280;56349;51.816;-0.026;2023-03-15T07:30:35;101130.06;;;20.85;33.59
69239;BME280;56349;51.816;-0.026;2023-03-15T07:33:01;101129.86;;;20.79;33.45
69239;BME280;56349;51.816;-0.026;2023-03-15T07:35:27;101129.47;;;20.77;33.30
69239;BME280;56349;51.816;-0.026;2023-03-15T07:37:53;101133.36;;;21.03;33.12
69239;BME280;56349;51.816;-0.026;2023-03-15T07:40:18;101135.73;;;21.50;32.89
69239;BME280;56349;51.816;-0.026;2023-03-15T07:42:43;101138.55;;;21.54;32.63
69239;BME280;56349;51.816;-0.026;2023-03-15T07:45:10;101140.18;;;21.82;32.36
69239;BME280;56349;51.816;-0.026;2023-03-15T07:47:35;101135.13;;;22.07;32.07
69239;BME280;56349;51.816;-0.026;2023-03-15T07:50:00;101135.31;;;21.81;31.80
69239;BME280;56349;51.816;-0.026;2023-03-15T07:52:25;101131.69;;;22.02;31.57
69239;BME280;56349;51.816;-0.026;2023-03-15T07:54:50;101127.98;;;22.20;31.36
69239;BME280;56349;51.816;-0.026;2023-03-15T07:57:16;101124.30;;;22.41;31.13
69239;BME280;56349;51.816;-0.026;2023-03-15T07:59:42;101127.43;;;22.58;30.93
69239;BME280;56349;51.816;-0.026;2023-03-15T08:02:09;101127.62;;;22.52;30.77
69239;BME280;56349;51.816;-0.026;2023-03-15T08:04:33;101129.40;;;22.84;30.61
69239;BME280;56349;51.816;-0.026;2023-03-15T08:06:59;101125.08;;;22.77;30.41
69239;BME280;56349;51.816;-0.026;2023-03-15T08:09:25;101126.44;;;23.15;30.14
69239;BME280;56349;51.816;-0.026;2023-03-15T08:11:50;101122.94;;;22.96;29.96
69239;BME280;56349;51.816;-0.026;2023-03-15T08:14:16;101119.75;;;22.99;29.78
69239;BME280;56349;51.816;-0.026;2023-03-15T08:16:42;101116.55;;;23.19;29.63
69239;BME280;56349;51.816;-0.026;2023-03-15T08:19:08;101117.06;;;23.14;29.51
69239;BME280;56349;51.816;-0.026;2023-03-15T08:21:34;101117.69;;;22.83;29.44
69239;BME280;56349;51.816;-0.026;2023-03-15T08:24:01;101115.40;;;22.95;29.39
69239;BME280;56349;51.816;-0.026;2023-03-15T08:26:26;101118.82;;;22.64;29.33
69239;BME280;56349;51.816;-0.026;2023-03-15T08:28:50;101121.69;;;22.76;29.29
69239;BME280;56349;51.816;-0.026;2023-03-15T08:31:17;101120.14;;;22.63;29.28
69239;BME280;56349;51.816;-0.026;2023-03-15T08:33:42;101122.88;;;22.49;29.32
69239;BME280;56349;51.816;-0.026;2023-03-15T08:36:07;101120.94;;;22.64;29.30
69239;BME280;56349;51.816;-0.026;2023-03-15T08:38:33;101124.08;;;22.52;29.41
69239;BME280;56349;51.816;-0.026;2023-03-15T08:40:58;101122.84;;;22.12;29.46
69239;BME280;56349;51.816;-0.026;2023-03-15T08:43:23;101127.38;;;22.49;29.60
69239;BME280;56349;51.816;-0.026;2023-03-15T08:45:49;101127.00;;;22.34;29.77
69239;BME280;56349;51.816;-0.026;2023-03-15T08:48:15;101124.49;;;22.22;29.92
69239;BME280;56349;51.816;-0.026;2023-03-15T08:50:40;101126.55;;;22.10;30.03
69239;BME280;56349;51.816;-0.026;2023-03-15T08:53:06;101122.84;;;21.98;30.18
69239;BME280;56349;51.816;-0.026;2023-03-15T08:55:32;101119.90;;;22.07;30.39
69239;BME280;56349;51.816;-0.026;2023-03-15T08:57:57;101120.35;;;21.73;30.48
69239;BME280;56349;51.816;-0.026;2023-03-15T09:00:24;101127.29;;;21.84;30.68
69239;BME280;56349;51.816;-0.026;2023-03-15T09:02:49;101130.53;;;21.74;30.72
69239;BME280;56349;51.816;-0.026;2023-03-15T09:05:15;101131.79;;;21.45;30.68
69239;BME280;56349;51.816;-0.026;2023-03-15T09:07:40;101132.64;;;21.36;30.68
69239;BME280;56349;51.816;-0.026;2023-03-15T09:10:06;101129.38;;;21.27;30.75
69239;BME280;56349;51.816;-0.026;2023-03-15T09:12:31;101128.57;;;21.22;30.92
69239;BME280;56349;51.816;-0.026;2023-03-15T09:14:57;101129.17;;;21.33;31.03
69239;BME280;56349;51.816;-0.026;2023-03-15T09:17:22;101128.91;;;21.49;31.13
69239;BME280;56349;51.816;-0.026;2023-03-15T09:19:48;101126.78;;;21.12;31.23
69239;BME280;56349;51.816;-0.026;2023-03-15T09:22:14;101126.58;;;21.06;31.29
69239;BME280;56349;51.816;-0.026;2023-03-15T09:24:40;101131.72;;;21.00;31.32
69239;BME280;56349;51.816;-0.026;2023-03-15T09:27:07;101135.50;;;21.20;31.36
69239;BME280;56349;51.816;-0.026;2023-03-15T09:29:32;101134.23;;;20.85;31.40
69239;BME280;56349;51.816;-0.026;2023-03-15T09:31:57;101133.68;;;21.05;31.46
69239;BME280;56349;51.816;-0.026;2023-03-15T09:34:22;101131.06;;;20.98;31.50
69239;BME280;56349;51.816;-0.026;2023-03-15T09:36:47;101129.44;;;20.65;31.61
69239;BME280;56349;51.816;-0.026;2023-03-15T09:39:13;101132.56;;;20.82;31.76
69239;BME280;56349;51.816;-0.026;2023-03-15T09:41:42;101135.84;;;20.77;32.01
69239;BME280;56349;51.816;-0.026;2023-03-15T09:44:13;101136.06;;;20.73;31.99
69239;BME280;56349;51.816;-0.026;2023-03-15T09:46:31;101135.83;;;20.65;32.04
69239;BME280;56349;51.816;-0.026;2023-03-15T09:49:02;101139.35;;;20.61;32.04
69239;BME280;56349;51.816;-0.026;2023-03-15T09:51:29;101145.44;;;20.55;32.07
69239;BME280;56349;51.816;-0.026;2023-03-15T09:53:50;101145.73;;;20.56;32.01
69239;BME280;56349;51.816;-0.026;2023-03-15T09:56:20;101146.29;;;20.53;32.00
69239;BME280;56349;51.816;-0.026;2023-03-15T09:58:38;101149.01;;;20.49;32.03
69239;BME280;56349;51.816;-0.026;2023-03-15T10:01:06;101149.12;;;20.16;32.06
69239;BME280;56349;51.816;-0.026;2023-03-15T10:03:32;101148.99;;;20.38;32.07
69239;BME280;56349;51.816;-0.026;2023-03-15T10:05:56;101146.19;;;20.31;32.10
69239;BME280;56349;51.816;-0.026;2023-03-15T10:08:20;101149.07;;;20.27;32.14
69239;BME280;56349;51.816;-0.026;2023-03-15T10:10:50;101147.12;;;20.25;32.14
69239;BME280;56349;51.816;-0.026;2023-03-15T10:13:24;101153.22;;;20.44;32.15
69239;BME280;56349;51.816;-0.026;2023-03-15T10:15:43;101153.17;;;20.17;32.17
69239;BME280;56349;51.816;-0.026;2023-03-15T10:20:31;101153.78;;;20.10;32.19
69239;BME280;56349;51.816;-0.026;2023-03-15T10:23:04;101163.15;;;20.52;32.18
69239;BME280;56349;51.816;-0.026;2023-03-15T10:25:22;101158.25;;;20.04;32.18
69239;BME280;56349;51.816;-0.026;2023-03-15T10:27:48;101157.40;;;20.49;32.21
69239;BME280;56349;51.816;-0.026;2023-03-15T10:30:16;101157.56;;;20.03;32.21
69239;BME280;56349;51.816;-0.026;2023-03-15T10:32:39;101153.15;;;20.04;32.17
69239;BME280;56349;51.816;-0.026;2023-03-15T10:35:12;101147.72;;;20.25;32.15
69239;BME280;56349;51.816;-0.026;2023-03-15T10:37:28;101145.81;;;20.03;32.11
69239;BME280;56349;51.816;-0.026;2023-03-15T10:39:55;101143.07;;;19.99;32.07
69239;BME280;56349;51.816;-0.026;2023-03-15T10:42:25;101141.51;;;20.40;32.06
69239;BME280;56349;51.816;-0.026;2023-03-15T10:44:46;101141.69;;;19.94;32.04
69239;BME280;56349;51.816;-0.026;2023-03-15T10:47:12;101140.24;;;20.17;31.97
69239;BME280;56349;51.816;-0.026;2023-03-15T10:49:39;101142.78;;;20.15;31.94
69239;BME280;56349;51.816;-0.026;2023-03-15T10:52:03;101143.18;;;20.10;31.91
69239;BME280;56349;51.816;-0.026;2023-03-15T10:54:27;101142.74;;;20.08;31.91
69239;BME280;56349;51.816;-0.026;2023-03-15T10:56:58;101144.10;;;19.85;31.92
69239;BME280;56349;51.816;-0.026;2023-03-15T10:59:21;101145.95;;;20.06;31.91
69239;BME280;56349;51.816;-0.026;2023-03-15T11:01:47;101145.57;;;20.06;31.91
69239;BME280;56349;51.816;-0.026;2023-03-15T11:04:15;101144.71;;;20.06;31.93
69239;BME280;56349;51.816;-0.026;2023-03-15T11:06:40;101144.19;;;20.06;31.96
69239;BME280;56349;51.816;-0.026;2023-03-15T11:09:08;101141.84;;;20.05;31.99
69239;BME280;56349;51.816;-0.026;2023-03-15T11:11:25;101142.69;;;20.05;32.01
69239;BME280;56349;51.816;-0.026;2023-03-15T11:13:57;101144.09;;;20.27;32.02
69239;BME280;56349;51.816;-0.026;2023-03-15T11:16:20;101141.29;;;20.05;32.09
69239;BME280;56349;51.816;-0.026;2023-03-15T11:18:47;101139.87;;;20.29;32.15
69239;BME280;56349;51.816;-0.026;2023-03-15T11:21:11;101137.95;;;19.86;32.12
69239;BME280;56349;51.816;-0.026;2023-03-15T11:23:36;101137.07;;;20.29;32.12
69239;BME280;56349;51.816;-0.026;2023-03-15T11:26:00;101133.77;;;20.05;32.10
69239;BME280;56349;51.816;-0.026;2023-03-15T11:28:27;101131.89;;;20.26;32.08
69239;BME280;56349;51.816;-0.026;2023-03-15T11:30:51;101129.22;;;20.02;32.06
69239;BME280;56349;51.816;-0.026;2023-03-15T11:33:28;101124.83;;;20.01;32.05
69239;BME280;56349;51.816;-0.026;2023-03-15T11:35:47;101122.09;;;20.02;32.03
69239;BME280;56349;51.816;-0.026;2023-03-15T11:38:12;101125.42;;;20.22;32.02
69239;BME280;56349;51.816;-0.026;2023-03-15T11:40:43;101123.72;;;20.21;32.02
69239;BME280;56349;51.816;-0.026;2023-03-15T11:43:02;101119.25;;;19.96;32.02
69239;BME280;56349;51.816;-0.026;2023-03-15T11:45:30;101117.86;;;19.98;31.98
69239;BME280;56349;51.816;-0.026;2023-03-15T11:47:54;101120.06;;;19.96;31.98
69239;BME280;56349;51.816;-0.026;2023-03-15T11:50:18;101122.64;;;19.95;31.97
69239;BME280;56349;51.816;-0.026;2023-03-15T11:52:42;101118.40;;;19.95;31.95
69239;BME280;56349;51.816;-0.026;2023-03-15T11:55:15;101111.59;;;19.94;31.94
69239;BME280;56349;51.816;-0.026;2023-03-15T11:57:42;101103.75;;;19.92;31.93
69239;BME280;56349;51.816;-0.026;2023-03-15T12:04:51;101099.36;;;19.66;31.19
69239;BME280;56349;51.816;-0.026;2023-03-15T12:07:26;101101.28;;;20.05;31.38
69239;BME280;56349;51.816;-0.026;2023-03-15T12:09:47;101101.58;;;19.81;31.04
69239;BME280;56349;51.816;-0.026;2023-03-15T12:14:35;101103.38;;;20.01;31.35
69239;BME280;56349;51.816;-0.026;2023-03-15T12:19:56;101097.01;;;20.13;31.70
69239;BME280;56349;51.816;-0.026;2023-03-15T12:21:51;101094.08;;;19.96;31.76
69239;BME280;56349;51.816;-0.026;2023-03-15T12:24:19;101089.61;;;20.17;31.81
69239;BME280;56349;51.816;-0.026;2023-03-15T12:26:42;101085.37;;;19.72;31.93
69239;BME280;56349;51.816;-0.026;2023-03-15T12:29:11;101079.46;;;19.80;32.02
69239;BME280;56349;51.816;-0.026;2023-03-15T12:33:56;101069.71;;;20.06;32.03
69239;BME280;56349;51.816;-0.026;2023-03-15T12:36:33;101067.41;;;20.24;31.94
69239;BME280;56349;51.816;-0.026;2023-03-15T12:38:53;101062.01;;;20.46;31.88
69239;BME280;56349;51.816;-0.026;2023-03-15T12:43:40;101060.02;;;20.52;31.90
69239;BME280;56349;51.816;-0.026;2023-03-15T12:46:05;101054.45;;;21.03;31.79
69239;BME280;56349;51.816;-0.026;2023-03-15T12:48:30;101058.63;;;21.39;31.53
69239;BME280;56349;51.816;-0.026;2023-03-15T12:51:01;101060.46;;;21.46;31.34